createdAt,value
2022-08-30T00:02:21.039Z,18.85
2022-08-30T00:04:48.399Z,18.80
2022-08-30T00:07:15.714Z,18.77
2022-08-30T00:09:42.613Z,18.75
2022-08-30T00:12:09.917Z,18.66
2022-08-30T00:14:37.257Z,18.68
2022-08-30T00:17:04.365Z,18.64
2022-08-30T00:19:31.479Z,18.73
2022-08-30T00:21:58.265Z,18.77
2022-08-30T00:24:25.109Z,18.72
2022-08-30T00:26:51.910Z,18.69
2022-08-30T00:29:18.711Z,18.57
2022-08-30T00:31:45.444Z,18.63
2022-08-30T00:34:12.249Z,18.62
2022-08-30T00:36:39.000Z,18.64
2022-08-30T00:39:06.461Z,18.57
2022-08-30T00:41:33.661Z,18.60
2022-08-30T00:44:01.314Z,18.58
2022-08-30T00:46:28.295Z,18.48
2022-08-30T00:48:56.602Z,18.50
2022-08-30T00:51:24.216Z,18.60
2022-08-30T00:53:54.966Z,18.56
2022-08-30T00:56:24.618Z,18.52
2022-08-30T00:58:55.877Z,18.44
2022-08-30T01:01:23.286Z,18.53
2022-08-30T01:03:50.556Z,18.40
2022-08-30T01:06:18.068Z,18.45
2022-08-30T01:08:46.868Z,18.36
2022-08-30T01:11:16.944Z,18.35
2022-08-30T01:13:47.153Z,18.28
2022-08-30T01:16:14.342Z,18.32
2022-08-30T01:18:41.597Z,18.34
2022-08-30T01:21:24.505Z,18.38
2022-08-30T01:23:55.785Z,18.33
2022-08-30T01:26:23.130Z,18.37
2022-08-30T01:28:54.867Z,18.36
2022-08-30T01:31:21.803Z,18.34
2022-08-30T01:33:48.657Z,18.33
2022-08-30T01:36:15.779Z,18.36
2022-08-30T01:38:50.024Z,18.25
2022-08-30T01:41:18.646Z,18.21
2022-08-30T01:43:45.708Z,18.29
2022-08-30T01:46:15.859Z,18.30
2022-08-30T01:48:54.121Z,18.29
2022-08-30T01:51:23.659Z,18.25
2022-08-30T01:53:50.693Z,18.25
2022-08-30T01:56:17.989Z,18.29
2022-08-30T01:58:45.741Z,18.29
2022-08-30T02:01:15.903Z,18.22
2022-08-30T02:03:46.607Z,18.31
2022-08-30T02:06:16.444Z,18.26
2022-08-30T02:08:44.254Z,18.25
2022-08-30T02:11:12.214Z,18.16
2022-08-30T02:13:40.394Z,18.08
2022-08-30T02:16:10.233Z,18.13
2022-08-30T02:18:39.369Z,18.09
2022-08-30T02:21:07.552Z,18.10
2022-08-30T02:23:34.955Z,17.98
2022-08-30T02:26:01.943Z,18.00
2022-08-30T02:28:29.200Z,18.04
2022-08-30T02:30:55.987Z,18.04
2022-08-30T02:33:22.783Z,17.96
2022-08-30T02:35:49.578Z,17.90
2022-08-30T02:38:16.399Z,17.82
2022-08-30T02:40:47.258Z,17.81
2022-08-30T02:43:14.157Z,17.80
2022-08-30T02:45:41.172Z,17.82
2022-08-30T02:48:08.373Z,17.81
2022-08-30T02:50:35.200Z,17.86
2022-08-30T02:53:01.974Z,17.75
2022-08-30T02:55:28.701Z,17.77
2022-08-30T02:57:55.540Z,17.80
2022-08-30T03:00:22.454Z,17.76
2022-08-30T03:02:49.462Z,17.77
2022-08-30T03:05:18.259Z,17.77
2022-08-30T03:07:47.392Z,17.83
2022-08-30T03:10:15.292Z,17.88
2022-08-30T03:12:42.737Z,17.99
2022-08-30T03:15:13.635Z,17.97
2022-08-30T03:17:41.056Z,17.86
2022-08-30T03:20:09.746Z,17.84
2022-08-30T03:22:36.498Z,17.91
2022-08-30T03:25:05.012Z,17.86
2022-08-30T03:27:31.954Z,17.86
2022-08-30T03:29:59.049Z,17.85
2022-08-30T03:32:25.893Z,17.85
2022-08-30T03:34:52.672Z,17.83
2022-08-30T03:37:23.294Z,17.75
2022-08-30T03:39:52.439Z,17.83
2022-08-30T03:42:19.985Z,17.76
2022-08-30T03:44:48.279Z,17.72
2022-08-30T03:47:15.178Z,17.59
2022-08-30T03:49:42.167Z,17.68
2022-08-30T03:52:09.020Z,17.62
2022-08-30T03:54:35.862Z,17.59
2022-08-30T03:57:04.910Z,17.58
2022-08-30T03:59:31.730Z,17.69
2022-08-30T04:01:59.323Z,17.63
2022-08-30T04:04:26.194Z,17.68
2022-08-30T04:06:52.967Z,17.74
2022-08-30T04:09:20.152Z,17.75
2022-08-30T04:11:47.014Z,17.77
2022-08-30T04:14:14.050Z,17.67
2022-08-30T04:16:41.268Z,17.60
2022-08-30T04:19:08.141Z,17.62
2022-08-30T04:21:35.073Z,17.66
2022-08-30T04:24:09.706Z,17.60
2022-08-30T04:26:36.718Z,17.67
2022-08-30T04:29:04.064Z,17.84
2022-08-30T04:31:31.495Z,17.78
2022-08-30T04:33:58.331Z,17.60
2022-08-30T04:36:25.688Z,17.49
2022-08-30T04:38:52.488Z,17.62
2022-08-30T04:41:21.038Z,17.91
2022-08-30T04:43:50.727Z,17.86
2022-08-30T04:46:19.088Z,17.84
2022-08-30T04:48:46.958Z,17.69
2022-08-30T04:51:16.534Z,17.62
2022-08-30T04:53:43.996Z,17.80
2022-08-30T04:56:16.388Z,17.90
2022-08-30T04:58:47.803Z,17.99
2022-08-30T05:01:19.880Z,18.14
2022-08-30T05:03:47.912Z,18.07
2022-08-30T05:06:15.787Z,18.08
2022-08-30T05:08:46.012Z,18.18
2022-08-30T05:11:14.869Z,18.17
2022-08-30T05:13:41.883Z,18.30
2022-08-30T05:16:09.108Z,18.37
2022-08-30T05:18:36.966Z,18.59
2022-08-30T05:21:14.177Z,18.57
2022-08-30T05:23:42.375Z,18.73
2022-08-30T05:26:14.628Z,18.87
2022-08-30T05:28:41.689Z,19.01
2022-08-30T05:31:14.747Z,19.07
2022-08-30T05:33:42.117Z,19.23
2022-08-30T05:36:10.679Z,19.26
2022-08-30T05:38:37.582Z,19.27
2022-08-30T05:41:10.686Z,19.31
2022-08-30T05:43:38.070Z,19.35
2022-08-30T05:46:19.415Z,19.46
2022-08-30T05:48:47.004Z,19.59
2022-08-30T05:51:17.625Z,19.68
2022-08-30T05:53:45.820Z,19.73
2022-08-30T05:56:15.744Z,19.83
2022-08-30T05:58:42.779Z,19.89
2022-08-30T06:01:20.045Z,19.91
2022-08-30T06:03:47.044Z,19.99
2022-08-30T06:06:13.783Z,20.06
2022-08-30T06:08:40.525Z,20.16
2022-08-30T06:11:07.282Z,20.20
2022-08-30T06:13:34.557Z,20.28
2022-08-30T06:16:01.368Z,20.38
2022-08-30T06:18:28.977Z,20.43
2022-08-30T06:20:55.876Z,20.54
2022-08-30T06:23:23.346Z,20.67
2022-08-30T06:25:50.506Z,20.70
2022-08-30T06:28:17.518Z,20.89
2022-08-30T06:30:44.482Z,20.83
2022-08-30T06:33:11.353Z,21.09
2022-08-30T06:35:56.636Z,21.18
2022-08-30T06:38:25.337Z,21.23
2022-08-30T06:40:52.130Z,21.24
2022-08-30T06:43:18.909Z,21.38
2022-08-30T06:45:45.831Z,21.45
2022-08-30T06:48:12.743Z,21.26
2022-08-30T06:50:42.027Z,21.26
2022-08-30T06:53:09.930Z,21.15
2022-08-30T06:55:37.399Z,21.25
2022-08-30T06:58:04.802Z,21.08
2022-08-30T07:00:31.623Z,21.13
2022-08-30T07:02:59.107Z,21.08
2022-08-30T07:05:26.170Z,21.00
2022-08-30T07:07:55.780Z,21.18
2022-08-30T07:10:22.677Z,21.22
2022-08-30T07:12:49.781Z,21.52
2022-08-30T07:15:20.617Z,21.75
2022-08-30T07:18:05.741Z,21.86
2022-08-30T07:20:40.071Z,21.75
2022-08-30T07:23:08.054Z,21.73
2022-08-30T07:25:37.007Z,21.87
2022-08-30T07:28:05.738Z,21.92
2022-08-30T07:30:33.347Z,22.20
2022-08-30T07:33:00.462Z,22.22
2022-08-30T07:35:27.386Z,22.33
2022-08-30T07:37:54.320Z,22.50
2022-08-30T07:40:21.239Z,22.67
2022-08-30T07:42:48.045Z,22.80
2022-08-30T07:45:14.907Z,22.72
2022-08-30T07:47:42.103Z,22.87
2022-08-30T07:50:08.973Z,23.04
2022-08-30T07:52:35.732Z,22.98
2022-08-30T07:55:03.165Z,23.35
2022-08-30T07:57:33.670Z,23.55
2022-08-30T08:00:01.377Z,23.57
2022-08-30T08:02:28.600Z,23.81
2022-08-30T08:04:55.539Z,23.61
2022-08-30T08:07:22.291Z,23.85
2022-08-30T08:09:49.826Z,24.11
2022-08-30T08:12:16.622Z,23.93
2022-08-30T08:14:43.351Z,24.07
2022-08-30T08:17:10.147Z,23.58
2022-08-30T08:19:36.868Z,23.68
2022-08-30T08:22:22.348Z,23.77
2022-08-30T08:24:49.983Z,23.88
2022-08-30T08:27:16.786Z,24.16
2022-08-30T08:29:43.630Z,24.03
2022-08-30T08:32:10.462Z,24.17
2022-08-30T08:34:37.299Z,24.22
2022-08-30T08:37:04.052Z,24.44
2022-08-30T08:39:30.890Z,24.49
2022-08-30T08:42:22.716Z,24.44
2022-08-30T08:45:00.792Z,24.39
2022-08-30T08:47:37.675Z,24.58
2022-08-30T08:50:12.761Z,24.76
2022-08-30T08:53:45.969Z,24.82
2022-08-30T08:56:15.662Z,24.83
2022-08-30T08:58:48.313Z,24.66
2022-08-30T09:01:20.019Z,24.76
2022-08-30T09:03:47.496Z,24.91
2022-08-30T09:06:27.861Z,25.03
2022-08-30T09:08:55.585Z,25.27
2022-08-30T09:11:27.891Z,24.98
2022-08-30T09:13:55.202Z,25.09
2022-08-30T09:16:51.804Z,25.16
2022-08-30T09:19:41.407Z,25.22
2022-08-30T09:22:34.739Z,25.45
2022-08-30T09:25:13.551Z,25.09
2022-08-30T09:27:44.856Z,25.27
2022-08-30T09:30:23.056Z,25.28
2022-08-30T09:32:57.662Z,25.34
2022-08-30T09:35:26.987Z,25.63
2022-08-30T09:38:04.695Z,25.55
2022-08-30T09:40:41.677Z,25.66
2022-08-30T09:43:34.654Z,25.10
2022-08-30T09:46:01.873Z,25.25
2022-08-30T09:48:37.725Z,25.45
2022-08-30T09:51:10.369Z,25.43
2022-08-30T09:54:19.876Z,25.38
2022-08-30T09:57:12.848Z,25.67
2022-08-30T10:00:05.052Z,25.48
2022-08-30T10:02:57.638Z,25.58
2022-08-30T10:05:55.223Z,25.61
2022-08-30T10:08:42.990Z,25.89
2022-08-30T10:11:19.582Z,26.40
2022-08-30T10:14:05.657Z,26.23
2022-08-30T10:16:50.333Z,26.31
2022-08-30T10:19:29.805Z,26.30
2022-08-30T10:22:04.625Z,26.43
2022-08-30T10:24:40.384Z,26.33
2022-08-30T10:27:26.334Z,26.67
2022-08-30T10:30:02.750Z,26.26
2022-08-30T10:32:37.947Z,26.05
2022-08-30T10:35:10.054Z,26.24
2022-08-30T10:38:06.038Z,26.23
2022-08-30T10:40:55.006Z,26.13
2022-08-30T10:43:41.666Z,26.65
2022-08-30T10:46:16.578Z,26.95
2022-08-30T10:48:47.478Z,26.69
2022-08-30T10:51:27.180Z,26.67
2022-08-30T10:54:18.828Z,26.25
2022-08-30T10:56:50.739Z,26.31
2022-08-30T10:59:20.479Z,26.36
2022-08-30T11:02:12.156Z,26.47
2022-08-30T11:05:01.457Z,26.38
2022-08-30T11:07:43.574Z,26.13
2022-08-30T11:10:38.223Z,26.58
2022-08-30T11:13:15.886Z,26.66
2022-08-30T11:16:02.968Z,26.97
2022-08-30T11:18:34.168Z,26.91
2022-08-30T11:21:33.531Z,27.11
2022-08-30T11:24:12.154Z,26.86
2022-08-30T11:26:45.663Z,26.96
2022-08-30T11:29:44.844Z,26.57
2022-08-30T11:32:15.951Z,26.93
2022-08-30T11:34:46.031Z,27.52
2022-08-30T11:37:38.619Z,27.30
2022-08-30T11:40:20.773Z,27.12
2022-08-30T11:42:49.436Z,26.44
2022-08-30T11:45:24.995Z,26.59
2022-08-30T11:48:10.130Z,26.95
2022-08-30T11:50:55.447Z,27.17
2022-08-30T11:53:49.899Z,27.62
2022-08-30T11:56:28.531Z,27.90
2022-08-30T11:59:06.353Z,27.64
2022-08-30T12:01:56.391Z,27.56
2022-08-30T12:04:44.690Z,27.48
2022-08-30T12:07:32.418Z,27.39
2022-08-30T12:10:06.398Z,27.41
2022-08-30T12:12:39.483Z,27.78
2022-08-30T12:15:25.545Z,27.78
2022-08-30T12:18:17.220Z,28.34
2022-08-30T12:20:47.879Z,28.17
2022-08-30T12:23:23.490Z,27.74
2022-08-30T12:25:50.595Z,27.11
2022-08-30T12:28:24.441Z,26.97
2022-08-30T12:30:52.071Z,27.31
2022-08-30T12:33:36.594Z,27.62
2022-08-30T12:36:13.483Z,27.52
2022-08-30T12:38:40.733Z,27.63
2022-08-30T12:41:08.047Z,27.35
2022-08-30T12:43:47.522Z,27.80
2022-08-30T12:46:17.310Z,27.43
2022-08-30T12:48:45.089Z,27.43
2022-08-30T12:51:27.999Z,27.64
2022-08-30T12:54:22.264Z,27.62
2022-08-30T12:56:56.577Z,28.08
2022-08-30T12:59:55.427Z,28.12
2022-08-30T13:02:28.093Z,27.83
2022-08-30T13:04:56.514Z,27.76
2022-08-30T13:07:32.661Z,27.96
2022-08-30T13:10:08.610Z,27.30
2022-08-30T13:12:40.327Z,26.91
2022-08-30T13:15:27.417Z,27.26
2022-08-30T13:18:28.113Z,27.17
2022-08-30T13:21:30.225Z,26.52
2022-08-30T13:24:05.533Z,26.85
2022-08-30T13:26:35.453Z,27.60
2022-08-30T13:29:10.379Z,27.45
2022-08-30T13:31:37.740Z,27.87
2022-08-30T13:34:05.221Z,27.54
2022-08-30T13:36:35.189Z,27.82
2022-08-30T13:39:03.445Z,27.84
2022-08-30T13:41:33.778Z,27.72
2022-08-30T13:44:13.242Z,27.68
2022-08-30T13:46:44.444Z,27.89
2022-08-30T13:49:45.953Z,28.06
2022-08-30T13:52:23.002Z,27.92
2022-08-30T13:54:52.047Z,28.22
2022-08-30T14:00:14.374Z,27.93
2022-08-30T14:02:45.419Z,27.91
2022-08-30T14:05:30.852Z,28.15
2022-08-30T14:08:00.624Z,28.43
2022-08-30T14:10:31.226Z,28.37
2022-08-30T14:13:08.206Z,28.72
2022-08-30T14:15:39.592Z,28.54
2022-08-30T14:18:07.724Z,28.58
2022-08-30T14:20:38.608Z,28.41
2022-08-30T14:23:07.661Z,27.91
2022-08-30T14:25:37.727Z,28.04
2022-08-30T14:28:07.125Z,27.40
2022-08-30T14:30:33.893Z,27.76
2022-08-30T14:33:00.923Z,27.45
2022-08-30T14:35:28.315Z,27.48
2022-08-30T14:38:04.652Z,27.26
2022-08-30T14:40:38.490Z,27.44
2022-08-30T14:43:06.102Z,27.79
2022-08-30T14:45:32.923Z,27.92
2022-08-30T14:48:02.790Z,28.23
2022-08-30T14:50:36.997Z,28.51
2022-08-30T14:53:05.277Z,27.56
2022-08-30T14:55:33.939Z,27.81
2022-08-30T14:58:01.633Z,27.91
2022-08-30T15:00:28.885Z,28.02
2022-08-30T15:02:55.668Z,27.76
2022-08-30T15:05:22.430Z,27.62
2022-08-30T15:07:51.555Z,27.87
2022-08-30T15:10:20.801Z,28.10
2022-08-30T15:12:49.001Z,28.06
2022-08-30T15:15:19.814Z,27.57
2022-08-30T15:17:50.522Z,27.96
2022-08-30T15:20:21.286Z,27.84
2022-08-30T15:22:48.115Z,27.97
2022-08-30T15:25:15.279Z,27.99
2022-08-30T15:27:42.093Z,27.57
2022-08-30T15:30:10.924Z,27.86
2022-08-30T15:32:38.016Z,28.12
2022-08-30T15:35:05.699Z,27.75
2022-08-30T15:37:34.879Z,27.56
2022-08-30T15:40:04.540Z,27.09
2022-08-30T15:42:33.751Z,26.90
2022-08-30T15:45:00.534Z,26.81
2022-08-30T15:47:27.723Z,27.25
2022-08-30T15:50:01.350Z,27.41
2022-08-30T15:52:28.194Z,27.47
2022-08-30T15:54:55.224Z,27.38
2022-08-30T15:57:23.112Z,27.19
2022-08-30T15:59:50.480Z,27.05
2022-08-30T16:02:17.483Z,27.19
2022-08-30T16:04:45.098Z,27.20
2022-08-30T16:07:14.428Z,26.57
2022-08-30T16:09:41.683Z,26.36
2022-08-30T16:12:09.759Z,26.21
2022-08-30T16:14:37.305Z,26.47
2022-08-30T16:17:04.996Z,26.34
2022-08-30T16:19:31.838Z,26.00
2022-08-30T16:21:58.875Z,25.93
2022-08-30T16:24:26.054Z,26.20
2022-08-30T16:26:53.592Z,26.43
2022-08-30T16:29:20.630Z,26.41
2022-08-30T16:31:47.611Z,26.36
2022-08-30T16:34:17.364Z,25.91
2022-08-30T16:36:44.536Z,26.11
2022-08-30T16:39:13.494Z,26.17
2022-08-30T16:41:42.433Z,26.04
2022-08-30T16:44:10.295Z,25.92
2022-08-30T16:46:38.660Z,25.77
2022-08-30T16:49:08.934Z,25.79
2022-08-30T16:51:37.450Z,25.80
2022-08-30T16:54:07.744Z,25.87
2022-08-30T16:56:36.315Z,25.95
2022-08-30T16:59:07.033Z,25.73
2022-08-30T17:01:38.221Z,25.53
2022-08-30T17:04:06.700Z,25.63
2022-08-30T17:06:33.826Z,25.43
2022-08-30T17:09:04.343Z,25.34
2022-08-30T17:11:32.762Z,25.27
2022-08-30T17:13:59.827Z,25.23
2022-08-30T17:16:30.113Z,25.10
2022-08-30T17:19:00.649Z,25.12
2022-08-30T17:21:30.646Z,24.86
2022-08-30T17:24:02.120Z,24.59
2022-08-30T17:26:35.468Z,24.43
2022-08-30T17:29:03.187Z,24.05
2022-08-30T17:31:31.134Z,24.30
2022-08-30T17:34:04.248Z,24.42
2022-08-30T17:36:36.622Z,24.34
2022-08-30T17:39:10.707Z,24.04
2022-08-30T17:41:45.143Z,23.68
2022-08-30T17:44:19.865Z,23.30
2022-08-30T17:46:46.713Z,23.06
2022-08-30T17:49:13.886Z,23.14
2022-08-30T17:51:42.955Z,22.89
2022-08-30T17:54:12.798Z,22.67
2022-08-30T17:56:40.698Z,22.26
2022-08-30T17:59:09.617Z,22.04
2022-08-30T18:01:37.313Z,21.88
2022-08-30T18:04:06.158Z,21.94
2022-08-30T18:06:34.957Z,21.66
2022-08-30T18:09:03.865Z,21.68
2022-08-30T18:11:36.095Z,21.76
2022-08-30T18:14:04.092Z,21.33
2022-08-30T18:16:35.082Z,21.11
2022-08-30T18:19:09.701Z,21.23
2022-08-30T18:21:37.592Z,20.84
2022-08-30T18:24:05.433Z,20.58
2022-08-30T18:26:32.442Z,20.61
2022-08-30T18:28:59.821Z,20.64
2022-08-30T18:31:27.251Z,20.56
2022-08-30T18:33:55.287Z,20.70
2022-08-30T18:36:22.063Z,20.64
2022-08-30T18:38:49.010Z,20.60
2022-08-30T18:41:17.243Z,20.41
2022-08-30T18:46:31.345Z,20.54
2022-08-30T18:49:00.208Z,20.69
2022-08-30T18:51:27.274Z,20.66
2022-08-30T18:53:55.749Z,20.23
2022-08-30T18:56:23.045Z,20.28
2022-08-30T18:58:54.841Z,20.17
2022-08-30T19:01:23.025Z,20.01
2022-08-30T19:03:50.645Z,19.85
2022-08-30T19:06:19.344Z,19.89
2022-08-30T19:08:46.522Z,20.03
2022-08-30T19:11:16.251Z,20.11
2022-08-30T19:13:43.825Z,20.48
2022-08-30T19:16:12.113Z,20.69
2022-08-30T19:18:40.631Z,20.72
2022-08-30T19:21:13.465Z,20.76
2022-08-30T19:23:40.983Z,20.75
2022-08-30T19:26:07.744Z,20.51
2022-08-30T19:28:38.109Z,20.17
2022-08-30T19:31:06.466Z,19.90
2022-08-30T19:33:34.047Z,19.27
2022-08-30T19:36:01.039Z,19.04
2022-08-30T19:38:27.868Z,18.72
2022-08-30T19:40:59.649Z,18.89
2022-08-30T19:43:27.421Z,19.17
2022-08-30T19:45:59.934Z,18.78
2022-08-30T19:48:32.700Z,19.03
2022-08-30T19:51:06.754Z,19.25
2022-08-30T19:53:34.264Z,18.64
2022-08-30T19:56:01.074Z,18.21
2022-08-30T19:58:30.236Z,18.06
2022-08-30T20:01:10.653Z,18.18
2022-08-30T20:03:45.258Z,18.26
2022-08-30T20:06:12.083Z,18.13
2022-08-30T20:08:39.288Z,18.14
2022-08-30T20:11:06.810Z,17.95
2022-08-30T20:13:35.857Z,17.84
2022-08-30T20:16:02.859Z,18.06
2022-08-30T20:18:29.605Z,18.15
2022-08-30T20:20:57.106Z,18.10
2022-08-30T20:23:25.499Z,17.91
2022-08-30T20:24:29.158Z,20.46
2022-08-30T20:25:54.628Z,17.91
2022-08-30T20:28:22.247Z,17.98
2022-08-30T20:30:49.396Z,18.23
2022-08-30T20:33:16.899Z,18.15
2022-08-30T20:35:48.736Z,18.22
2022-08-30T20:38:21.441Z,18.20
2022-08-30T20:40:51.261Z,18.27
2022-08-30T20:43:19.665Z,18.75
2022-08-30T20:45:47.695Z,18.88
2022-08-30T20:48:15.257Z,18.62
2022-08-30T20:50:42.374Z,18.82
2022-08-30T20:53:09.827Z,18.90
2022-08-30T20:55:41.451Z,18.91
2022-08-30T20:58:08.407Z,18.53
2022-08-30T21:00:35.520Z,18.66
2022-08-30T21:03:06.623Z,18.58
2022-08-30T21:05:51.277Z,18.63
2022-08-30T21:08:18.672Z,18.63
2022-08-30T21:10:46.365Z,18.54
2022-08-30T21:13:13.159Z,18.45
2022-08-30T21:15:39.884Z,18.37
2022-08-30T21:18:06.695Z,18.45
2022-08-30T21:20:33.523Z,18.48
2022-08-30T21:23:00.386Z,18.68
2022-08-30T21:25:27.076Z,18.88
2022-08-30T21:27:54.942Z,19.05
2022-08-30T21:30:21.793Z,19.23
2022-08-30T21:32:48.524Z,19.04
2022-08-30T21:35:33.680Z,18.87
2022-08-30T21:38:00.495Z,18.82
2022-08-30T21:40:27.464Z,18.90
2022-08-30T21:42:54.275Z,18.67
2022-08-30T21:45:21.002Z,18.30
2022-08-30T21:47:47.754Z,18.17
2022-08-30T21:50:14.607Z,18.14
2022-08-30T21:52:41.342Z,17.76
2022-08-30T21:55:08.404Z,17.54
2022-08-30T21:57:35.227Z,17.43
2022-08-30T22:00:04.431Z,17.09
2022-08-30T22:02:33.176Z,17.60
2022-08-30T22:05:00.065Z,17.77
2022-08-30T22:07:27.720Z,17.64
2022-08-30T22:09:54.490Z,17.26
2022-08-30T22:12:21.253Z,17.42
2022-08-30T22:14:48.048Z,17.10
2022-08-30T22:17:14.814Z,17.08
2022-08-30T22:19:41.837Z,16.78
2022-08-30T22:22:08.643Z,16.61
2022-08-30T22:24:35.442Z,16.84
2022-08-30T22:27:03.443Z,17.15
2022-08-30T22:29:30.607Z,16.78
2022-08-30T22:31:58.473Z,16.52
2022-08-30T22:34:25.654Z,16.44
2022-08-30T22:36:52.431Z,16.59
2022-08-30T22:39:19.251Z,16.38
2022-08-30T22:41:46.101Z,16.77
2022-08-30T22:44:13.426Z,17.18
2022-08-30T22:46:40.547Z,17.57
2022-08-30T22:49:09.089Z,17.61
2022-08-30T22:51:36.764Z,17.54
2022-08-30T22:54:05.044Z,17.65
2022-08-30T22:56:34.167Z,17.96
2022-08-30T22:59:01.277Z,17.84
2022-08-30T23:01:34.319Z,17.86
2022-08-30T23:04:01.740Z,17.81
2022-08-30T23:06:29.559Z,17.44
2022-08-30T23:08:56.544Z,17.23
2022-08-30T23:11:23.395Z,17.34
2022-08-30T23:13:50.339Z,17.15
2022-08-30T23:16:17.884Z,17.35
2022-08-30T23:18:46.381Z,17.54
2022-08-30T23:21:16.658Z,17.46
2022-08-30T23:24:02.414Z,17.51
2022-08-30T23:26:48.045Z,17.43
2022-08-30T23:29:34.089Z,17.30
2022-08-30T23:32:19.168Z,17.24
2022-08-30T23:35:04.446Z,17.23
2022-08-30T23:37:53.204Z,16.96
2022-08-30T23:40:40.605Z,17.08
2022-08-30T23:43:27.788Z,17.30
2022-08-30T23:46:18.980Z,17.44
2022-08-30T23:49:08.920Z,17.58
2022-08-30T23:51:56.770Z,17.70
2022-08-30T23:54:43.354Z,17.77
2022-08-30T23:57:28.742Z,17.83
